sensor_id;sensor_type;location;lat;lon;timestamp;pressure;altitude;pressure_sealevel;temperature;humidity
40838;BME280;29632;49.168;9.848;2023-06-14T00:01:46;96399.06;;;21.63;28.45
40838;BME280;29632;49.168;9.848;2023-06-14T00:04:13;96394.41;;;21.59;28.56
40838;BME280;29632;49.168;9.848;2023-06-14T00:06:39;96407.31;;;21.55;28.56
40838;BME280;29632;49.168;9.848;2023-06-14T00:09:06;96399.00;;;21.52;28.53
40838;BME280;29632;49.168;9.848;2023-06-14T00:11:34;96399.22;;;21.50;28.50
40838;BME280;29632;49.168;9.848;2023-06-14T00:13:59;96395.75;;;21.49;28.70
40838;BME280;29632;49.168;9.848;2023-06-14T00:16:25;96393.34;;;21.48;28.48
40838;BME280;29632;49.168;9.848;2023-06-14T00:18:50;96392.75;;;21.46;28.57
40838;BME280;29632;49.168;9.848;2023-06-14T00:21:18;96395.41;;;21.46;28.59
40838;BME280;29632;49.168;9.848;2023-06-14T00:23:44;96393.97;;;21.43;28.67
40838;BME280;29632;49.168;9.848;2023-06-14T00:26:10;96389.09;;;21.40;28.67
40838;BME280;29632;49.168;9.848;2023-06-14T00:28:35;96393.00;;;21.38;28.55
40838;BME280;29632;49.168;9.848;2023-06-14T00:31:01;96387.13;;;21.36;28.53
40838;BME280;29632;49.168;9.848;2023-06-14T00:33:27;96389.41;;;21.32;28.77
40838;BME280;29632;49.168;9.848;2023-06-14T00:35:52;96393.09;;;21.31;28.77
40838;BME280;29632;49.168;9.848;2023-06-14T00:38:21;96391.69;;;21.28;28.63
40838;BME280;29632;49.168;9.848;2023-06-14T00:40:46;96392.13;;;21.25;28.72
40838;BME280;29632;49.168;9.848;2023-06-14T00:43:12;96401.09;;;21.24;28.72
40838;BME280;29632;49.168;9.848;2023-06-14T00:45:38;96390.72;;;21.23;28.66
40838;BME280;29632;49.168;9.848;2023-06-14T00:48:04;96390.13;;;21.21;28.71
40838;BME280;29632;49.168;9.848;2023-06-14T00:50:31;96378.16;;;21.18;28.97
40838;BME280;29632;49.168;9.848;2023-06-14T00:52:59;96381.25;;;21.15;28.77
40838;BME280;29632;49.168;9.848;2023-06-14T00:55:26;96382.72;;;21.11;28.82
40838;BME280;29632;49.168;9.848;2023-06-14T00:57:55;96379.09;;;21.05;28.99
40838;BME280;29632;49.168;9.848;2023-06-14T01:00:22;96384.25;;;21.00;28.84
40838;BME280;29632;49.168;9.848;2023-06-14T01:02:47;96385.94;;;20.94;29.23
40838;BME280;29632;49.168;9.848;2023-06-14T01:05:15;96380.28;;;20.91;28.96
40838;BME280;29632;49.168;9.848;2023-06-14T01:08:06;96381.16;;;20.85;29.02
40838;BME280;29632;49.168;9.848;2023-06-14T01:10:45;96384.44;;;20.80;29.09
40838;BME280;29632;49.168;9.848;2023-06-14T01:13:36;96386.94;;;20.75;29.27
40838;BME280;29632;49.168;9.848;2023-06-14T01:16:03;96386.19;;;20.68;29.35
40838;BME280;29632;49.168;9.848;2023-06-14T01:18:30;96384.19;;;20.63;29.28
40838;BME280;29632;49.168;9.848;2023-06-14T01:20:56;96388.06;;;20.61;29.26
40838;BME280;29632;49.168;9.848;2023-06-14T01:23:22;96380.56;;;20.58;29.44
40838;BME280;29632;49.168;9.848;2023-06-14T01:25:49;96386.84;;;20.56;29.32
40838;BME280;29632;49.168;9.848;2023-06-14T01:28:19;96383.63;;;20.54;29.31
40838;BME280;29632;49.168;9.848;2023-06-14T01:30:51;96381.19;;;20.53;29.33
40838;BME280;29632;49.168;9.848;2023-06-14T01:33:22;96377.97;;;20.51;29.35
40838;BME280;29632;49.168;9.848;2023-06-14T01:35:50;96383.47;;;20.49;29.49
40838;BME280;29632;49.168;9.848;2023-06-14T01:38:21;96383.91;;;20.46;29.32
40838;BME280;29632;49.168;9.848;2023-06-14T01:40:47;96386.78;;;20.45;29.52
40838;BME280;29632;49.168;9.848;2023-06-14T01:43:14;96377.41;;;20.42;29.47
40838;BME280;29632;49.168;9.848;2023-06-14T01:45:42;96376.03;;;20.40;29.42
40838;BME280;29632;49.168;9.848;2023-06-14T01:48:08;96377.03;;;20.38;29.51
40838;BME280;29632;49.168;9.848;2023-06-14T01:50:34;96378.28;;;20.36;29.51
40838;BME280;29632;49.168;9.848;2023-06-14T01:53:00;96375.88;;;20.34;29.56
40838;BME280;29632;49.168;9.848;2023-06-14T01:55:26;96371.81;;;20.32;29.64
40838;BME280;29632;49.168;9.848;2023-06-14T01:57:52;96388.50;;;20.32;29.68
40838;BME280;29632;49.168;9.848;2023-06-14T02:00:19;96384.22;;;20.31;29.52
40838;BME280;29632;49.168;9.848;2023-06-14T02:02:44;96386.28;;;20.29;29.62
40838;BME280;29632;49.168;9.848;2023-06-14T02:05:11;96388.91;;;20.29;29.96
40838;BME280;29632;49.168;9.848;2023-06-14T02:07:37;96380.19;;;20.29;29.69
40838;BME280;29632;49.168;9.848;2023-06-14T02:10:03;96387.28;;;20.28;29.58
40838;BME280;29632;49.168;9.848;2023-06-14T02:12:29;96387.50;;;20.27;29.52
40838;BME280;29632;49.168;9.848;2023-06-14T02:14:55;96390.59;;;20.24;29.64
40838;BME280;29632;49.168;9.848;2023-06-14T02:17:22;96395.50;;;20.20;29.67
40838;BME280;29632;49.168;9.848;2023-06-14T02:19:48;96394.88;;;20.18;29.68
40838;BME280;29632;49.168;9.848;2023-06-14T02:22:15;96397.75;;;20.16;29.84
40838;BME280;29632;49.168;9.848;2023-06-14T02:24:41;96397.53;;;20.18;29.78
40838;BME280;29632;49.168;9.848;2023-06-14T02:27:07;96384.31;;;20.18;29.69
40838;BME280;29632;49.168;9.848;2023-06-14T02:29:33;96385.94;;;20.19;29.70
40838;BME280;29632;49.168;9.848;2023-06-14T02:31:59;96385.94;;;20.19;29.64
40838;BME280;29632;49.168;9.848;2023-06-14T02:34:25;96386.34;;;20.16;29.63
40838;BME280;29632;49.168;9.848;2023-06-14T02:36:50;96390.25;;;20.13;29.90
40838;BME280;29632;49.168;9.848;2023-06-14T02:39:18;96384.38;;;20.11;29.94
40838;BME280;29632;49.168;9.848;2023-06-14T02:41:46;96386.41;;;20.09;30.00
40838;BME280;29632;49.168;9.848;2023-06-14T02:44:13;96381.13;;;20.09;29.90
40838;BME280;29632;49.168;9.848;2023-06-14T02:46:39;96378.09;;;20.06;29.92
40838;BME280;29632;49.168;9.848;2023-06-14T02:49:05;96379.94;;;20.05;30.03
40838;BME280;29632;49.168;9.848;2023-06-14T02:51:30;96380.94;;;20.04;29.81
40838;BME280;29632;49.168;9.848;2023-06-14T02:53:56;96385.47;;;19.97;30.13
40838;BME280;29632;49.168;9.848;2023-06-14T02:56:22;96384.69;;;19.90;29.87
40838;BME280;29632;49.168;9.848;2023-06-14T02:58:48;96388.78;;;19.86;30.20
40838;BME280;29632;49.168;9.848;2023-06-14T03:01:14;96396.53;;;19.80;30.05
40838;BME280;29632;49.168;9.848;2023-06-14T03:03:40;96388.22;;;19.77;30.11
40838;BME280;29632;49.168;9.848;2023-06-14T03:06:05;96408.94;;;19.73;30.27
40838;BME280;29632;49.168;9.848;2023-06-14T03:08:33;96399.00;;;19.69;30.13
40838;BME280;29632;49.168;9.848;2023-06-14T03:11:04;96397.81;;;19.65;29.98
40838;BME280;29632;49.168;9.848;2023-06-14T03:13:37;96401.88;;;19.60;30.27
40838;BME280;29632;49.168;9.848;2023-06-14T03:16:04;96405.16;;;19.56;30.11
40838;BME280;29632;49.168;9.848;2023-06-14T03:18:30;96398.25;;;19.55;30.40
40838;BME280;29632;49.168;9.848;2023-06-14T03:20:56;96404.56;;;19.54;30.40
40838;BME280;29632;49.168;9.848;2023-06-14T03:23:26;96399.09;;;19.55;30.31
40838;BME280;29632;49.168;9.848;2023-06-14T03:25:52;96404.13;;;19.57;30.42
40838;BME280;29632;49.168;9.848;2023-06-14T03:28:18;96406.56;;;19.58;30.31
40838;BME280;29632;49.168;9.848;2023-06-14T03:30:43;96411.03;;;19.58;30.39
40838;BME280;29632;49.168;9.848;2023-06-14T03:33:09;96419.97;;;19.57;30.32
40838;BME280;29632;49.168;9.848;2023-06-14T03:35:35;96417.34;;;19.57;30.46
40838;BME280;29632;49.168;9.848;2023-06-14T03:38:00;96412.28;;;19.55;30.28
40838;BME280;29632;49.168;9.848;2023-06-14T03:40:28;96422.84;;;19.55;30.34
40838;BME280;29632;49.168;9.848;2023-06-14T03:42:54;96416.75;;;19.55;30.57
40838;BME280;29632;49.168;9.848;2023-06-14T03:45:20;96422.84;;;19.55;30.34
40838;BME280;29632;49.168;9.848;2023-06-14T03:47:46;96430.78;;;19.55;30.23
40838;BME280;29632;49.168;9.848;2023-06-14T03:50:12;96429.75;;;19.56;30.40
40838;BME280;29632;49.168;9.848;2023-06-14T03:52:38;96436.88;;;19.56;30.35
40838;BME280;29632;49.168;9.848;2023-06-14T03:55:04;96431.19;;;19.52;30.58
40838;BME280;29632;49.168;9.848;2023-06-14T03:57:30;96437.47;;;19.51;30.68
40838;BME280;29632;49.168;9.848;2023-06-14T03:59:56;96435.88;;;19.50;30.64
40838;BME280;29632;49.168;9.848;2023-06-14T04:02:22;96434.84;;;19.51;30.69
40838;BME280;29632;49.168;9.848;2023-06-14T04:04:48;96437.47;;;19.51;30.54
40838;BME280;29632;49.168;9.848;2023-06-14T04:07:15;96437.28;;;19.53;30.69
40838;BME280;29632;49.168;9.848;2023-06-14T04:09:44;96438.06;;;19.53;30.66
40838;BME280;29632;49.168;9.848;2023-06-14T04:12:10;96440.50;;;19.55;30.60
40838;BME280;29632;49.168;9.848;2023-06-14T04:14:37;96442.94;;;19.56;30.63
40838;BME280;29632;49.168;9.848;2023-06-14T04:17:03;96439.28;;;19.57;30.82
40838;BME280;29632;49.168;9.848;2023-06-14T04:19:29;96448.63;;;19.60;30.63
40838;BME280;29632;49.168;9.848;2023-06-14T04:21:55;96456.34;;;19.61;30.71
40838;BME280;29632;49.168;9.848;2023-06-14T04:24:20;96456.13;;;19.63;30.65
40838;BME280;29632;49.168;9.848;2023-06-14T04:26:46;96462.00;;;19.65;30.68
40838;BME280;29632;49.168;9.848;2023-06-14T04:29:16;96462.59;;;19.67;30.77
40838;BME280;29632;49.168;9.848;2023-06-14T04:31:45;96467.69;;;19.69;30.60
40838;BME280;29632;49.168;9.848;2023-06-14T04:34:14;96465.84;;;19.69;30.72
40838;BME280;29632;49.168;9.848;2023-06-14T04:36:43;96464.63;;;19.72;30.88
40838;BME280;29632;49.168;9.848;2023-06-14T04:39:16;96470.34;;;19.75;30.57
40838;BME280;29632;49.168;9.848;2023-06-14T04:41:43;96464.66;;;19.78;30.76
40838;BME280;29632;49.168;9.848;2023-06-14T04:44:09;96469.50;;;19.82;30.85
40838;BME280;29632;49.168;9.848;2023-06-14T04:46:36;96464.81;;;19.84;30.91
40838;BME280;29632;49.168;9.848;2023-06-14T04:49:12;96463.38;;;19.88;30.87
40838;BME280;29632;49.168;9.848;2023-06-14T04:51:40;96465.41;;;19.92;30.84
40838;BME280;29632;49.168;9.848;2023-06-14T04:54:05;96471.28;;;19.94;30.80
40838;BME280;29632;49.168;9.848;2023-06-14T04:56:35;96472.69;;;19.97;30.91
40838;BME280;29632;49.168;9.848;2023-06-14T04:59:03;96473.06;;;20.00;30.73
40838;BME280;29632;49.168;9.848;2023-06-14T05:01:32;96476.94;;;20.05;30.95
40838;BME280;29632;49.168;9.848;2023-06-14T05:03:59;96472.03;;;20.08;30.96
40838;BME280;29632;49.168;9.848;2023-06-14T05:06:25;96473.41;;;20.11;31.13
40838;BME280;29632;49.168;9.848;2023-06-14T05:08:51;96477.50;;;20.13;30.91
40838;BME280;29632;49.168;9.848;2023-06-14T05:11:17;96477.06;;;20.16;30.99
40838;BME280;29632;49.168;9.848;2023-06-14T05:13:42;96477.47;;;20.20;30.71
40838;BME280;29632;49.168;9.848;2023-06-14T05:16:10;96476.59;;;20.26;30.93
40838;BME280;29632;49.168;9.848;2023-06-14T05:18:37;96482.25;;;20.30;30.89
40838;BME280;29632;49.168;9.848;2023-06-14T05:21:03;96479.00;;;20.34;31.04
40838;BME280;29632;49.168;9.848;2023-06-14T05:23:31;96476.72;;;20.38;31.12
40838;BME280;29632;49.168;9.848;2023-06-14T05:25:56;96480.34;;;20.44;30.83
40838;BME280;29632;49.168;9.848;2023-06-14T05:28:22;96485.00;;;20.48;31.03
40838;BME280;29632;49.168;9.848;2023-06-14T05:30:48;96493.13;;;20.53;30.93
40838;BME280;29632;49.168;9.848;2023-06-14T05:33:14;96487.38;;;20.56;31.01
40838;BME280;29632;49.168;9.848;2023-06-14T05:35:39;96499.78;;;20.63;31.04
40838;BME280;29632;49.168;9.848;2023-06-14T05:38:05;96496.31;;;20.69;30.99
40838;BME280;29632;49.168;9.848;2023-06-14T05:40:33;96499.09;;;20.74;30.84
40838;BME280;29632;49.168;9.848;2023-06-14T05:42:58;96499.25;;;20.79;30.87
40838;BME280;29632;49.168;9.848;2023-06-14T05:45:24;96498.41;;;20.85;30.71
40838;BME280;29632;49.168;9.848;2023-06-14T05:47:50;96505.47;;;20.91;30.90
40838;BME280;29632;49.168;9.848;2023-06-14T05:50:15;96509.09;;;20.97;30.93
40838;BME280;29632;49.168;9.848;2023-06-14T05:52:41;96508.22;;;21.03;30.92
40838;BME280;29632;49.168;9.848;2023-06-14T05:55:07;96516.34;;;21.08;30.86
40838;BME280;29632;49.168;9.848;2023-06-14T05:57:33;96505.91;;;21.13;31.08
40838;BME280;29632;49.168;9.848;2023-06-14T05:59:58;96506.84;;;21.19;30.79
40838;BME280;29632;49.168;9.848;2023-06-14T06:02:24;96519.25;;;21.25;30.90
40838;BME280;29632;49.168;9.848;2023-06-14T06:04:50;96514.09;;;21.30;30.83
40838;BME280;29632;49.168;9.848;2023-06-14T06:07:15;96518.13;;;21.33;30.90
40838;BME280;29632;49.168;9.848;2023-06-14T06:09:41;96513.81;;;21.39;30.99
40838;BME280;29632;49.168;9.848;2023-06-14T06:12:07;96520.31;;;21.43;31.00
40838;BME280;29632;49.168;9.848;2023-06-14T06:14:33;96521.28;;;21.48;30.99
40838;BME280;29632;49.168;9.848;2023-06-14T06:16:58;96519.59;;;21.54;30.87
40838;BME280;29632;49.168;9.848;2023-06-14T06:19:24;96522.97;;;21.61;30.81
40838;BME280;29632;49.168;9.848;2023-06-14T06:21:50;96517.63;;;21.68;30.94
40838;BME280;29632;49.168;9.848;2023-06-14T06:24:16;96520.41;;;21.73;30.81
40838;BME280;29632;49.168;9.848;2023-06-14T06:26:41;96524.00;;;21.79;30.81
40838;BME280;29632;49.168;9.848;2023-06-14T06:29:07;96528.44;;;21.85;30.86
40838;BME280;29632;49.168;9.848;2023-06-14T06:31:33;96515.91;;;21.92;30.98
40838;BME280;29632;49.168;9.848;2023-06-14T06:33:58;96517.69;;;21.98;30.78
40838;BME280;29632;49.168;9.848;2023-06-14T06:36:24;96526.00;;;22.02;30.87
40838;BME280;29632;49.168;9.848;2023-06-14T06:38:50;96524.31;;;22.08;30.79
40838;BME280;29632;49.168;9.848;2023-06-14T06:41:16;96525.03;;;22.15;30.71
40838;BME280;29632;49.168;9.848;2023-06-14T06:43:41;96525.97;;;22.20;30.89
40838;BME280;29632;49.168;9.848;2023-06-14T06:46:07;96528.56;;;22.27;30.72
40838;BME280;29632;49.168;9.848;2023-06-14T06:48:33;96533.00;;;22.33;30.83
40838;BME280;29632;49.168;9.848;2023-06-14T06:50:58;96527.56;;;22.40;30.74
40838;BME280;29632;49.168;9.848;2023-06-14T06:53:24;96537.53;;;22.44;30.63
40838;BME280;29632;49.168;9.848;2023-06-14T06:55:50;96535.59;;;22.52;30.81
40838;BME280;29632;49.168;9.848;2023-06-14T06:58:15;96537.34;;;22.58;30.88
40838;BME280;29632;49.168;9.848;2023-06-14T07:00:41;96539.09;;;22.64;30.78
40838;BME280;29632;49.168;9.848;2023-06-14T07:03:06;96537.97;;;22.72;30.78
40838;BME280;29632;49.168;9.848;2023-06-14T07:05:32;96539.69;;;22.78;30.57
40838;BME280;29632;49.168;9.848;2023-06-14T07:07:58;96536.94;;;22.85;30.57
40838;BME280;29632;49.168;9.848;2023-06-14T07:10:24;96537.66;;;22.92;30.81
40838;BME280;29632;49.168;9.848;2023-06-14T07:12:50;96534.09;;;22.98;30.73
40838;BME280;29632;49.168;9.848;2023-06-14T07:15:16;96536.03;;;23.03;30.83
40838;BME280;29632;49.168;9.848;2023-06-14T07:17:42;96531.69;;;23.08;30.61
40838;BME280;29632;49.168;9.848;2023-06-14T07:20:08;96531.34;;;23.16;30.75
40838;BME280;29632;49.168;9.848;2023-06-14T07:22:38;96531.81;;;23.25;30.85
40838;BME280;29632;49.168;9.848;2023-06-14T07:25:08;96540.72;;;23.31;30.74
40838;BME280;29632;49.168;9.848;2023-06-14T07:27:34;96548.81;;;23.36;30.48
40838;BME280;29632;49.168;9.848;2023-06-14T07:29:59;96547.91;;;23.42;30.75
40838;BME280;29632;49.168;9.848;2023-06-14T07:32:25;96553.09;;;23.49;30.47
40838;BME280;29632;49.168;9.848;2023-06-14T07:34:50;96558.03;;;23.57;30.78
40838;BME280;29632;49.168;9.848;2023-06-14T07:37:16;96553.66;;;23.63;30.79
40838;BME280;29632;49.168;9.848;2023-06-14T07:39:42;96559.44;;;23.71;30.42
40838;BME280;29632;49.168;9.848;2023-06-14T07:42:07;96566.47;;;23.78;30.53
40838;BME280;29632;49.168;9.848;2023-06-14T07:44:33;96563.72;;;23.84;30.74
40838;BME280;29632;49.168;9.848;2023-06-14T07:46:59;96572.94;;;23.93;30.81
40838;BME280;29632;49.168;9.848;2023-06-14T07:49:27;96572.38;;;24.03;30.32
40838;BME280;29632;49.168;9.848;2023-06-14T07:51:53;96572.00;;;24.11;30.49
40838;BME280;29632;49.168;9.848;2023-06-14T07:54:19;96568.97;;;24.20;30.36
40838;BME280;29632;49.168;9.848;2023-06-14T07:56:45;96574.72;;;24.28;30.24
40838;BME280;29632;49.168;9.848;2023-06-14T07:59:11;96572.72;;;24.36;30.36
40838;BME280;29632;49.168;9.848;2023-06-14T08:01:37;96574.22;;;24.43;30.58
40838;BME280;29632;49.168;9.848;2023-06-14T08:04:02;96574.66;;;24.52;30.38
40838;BME280;29632;49.168;9.848;2023-06-14T08:06:28;96579.59;;;24.60;30.28
40838;BME280;29632;49.168;9.848;2023-06-14T08:08:54;96572.03;;;24.69;30.19
40838;BME280;29632;49.168;9.848;2023-06-14T08:11:19;96574.31;;;24.77;30.27
40838;BME280;29632;49.168;9.848;2023-06-14T08:13:45;96578.69;;;24.83;30.37
40838;BME280;29632;49.168;9.848;2023-06-14T08:16:10;96575.63;;;24.92;30.44
40838;BME280;29632;49.168;9.848;2023-06-14T08:18:36;96577.09;;;24.99;30.17
40838;BME280;29632;49.168;9.848;2023-06-14T08:21:02;96581.22;;;25.07;30.51
40838;BME280;29632;49.168;9.848;2023-06-14T08:23:28;96580.25;;;25.13;30.05
40838;BME280;29632;49.168;9.848;2023-06-14T08:25:54;96585.75;;;25.23;29.99
40838;BME280;29632;49.168;9.848;2023-06-14T08:28:20;96575.53;;;25.32;30.34
40838;BME280;29632;49.168;9.848;2023-06-14T08:30:45;96574.31;;;25.40;30.25
40838;BME280;29632;49.168;9.848;2023-06-14T08:33:11;96578.41;;;25.48;30.09
40838;BME280;29632;49.168;9.848;2023-06-14T08:35:37;96574.78;;;25.54;30.31
40838;BME280;29632;49.168;9.848;2023-06-14T08:38:04;96572.75;;;25.61;30.34
40838;BME280;29632;49.168;9.848;2023-06-14T08:40:30;96571.78;;;25.67;29.79
40838;BME280;29632;49.168;9.848;2023-06-14T08:42:57;96576.13;;;25.73;29.93
40838;BME280;29632;49.168;9.848;2023-06-14T08:45:23;96580.25;;;25.81;29.90
40838;BME280;29632;49.168;9.848;2023-06-14T08:47:53;96570.75;;;25.90;29.99
40838;BME280;29632;49.168;9.848;2023-06-14T08:50:26;96575.94;;;25.97;29.87
40838;BME280;29632;49.168;9.848;2023-06-14T08:53:00;96577.13;;;26.06;29.71
40838;BME280;29632;49.168;9.848;2023-06-14T08:55:28;96576.94;;;26.13;29.87
40838;BME280;29632;49.168;9.848;2023-06-14T08:57:55;96571.41;;;26.19;29.80
40838;BME280;29632;49.168;9.848;2023-06-14T09:00:25;96581.09;;;26.26;29.94
40838;BME280;29632;49.168;9.848;2023-06-14T09:02:52;96581.47;;;26.34;30.04
40838;BME280;29632;49.168;9.848;2023-06-14T09:05:26;96579.16;;;26.43;30.03
40838;BME280;29632;49.168;9.848;2023-06-14T09:07:52;96583.81;;;26.53;29.90
40838;BME280;29632;49.168;9.848;2023-06-14T09:10:20;96583.34;;;26.61;29.72
40838;BME280;29632;49.168;9.848;2023-06-14T09:12:46;96577.84;;;26.68;29.60
40838;BME280;29632;49.168;9.848;2023-06-14T09:15:12;96583.78;;;26.75;29.70
40838;BME280;29632;49.168;9.848;2023-06-14T09:17:39;96594.50;;;26.80;29.70
40838;BME280;29632;49.168;9.848;2023-06-14T09:20:07;96587.38;;;26.86;29.73
40838;BME280;29632;49.168;9.848;2023-06-14T09:22:37;96586.34;;;26.92;29.62
40838;BME280;29632;49.168;9.848;2023-06-14T09:25:03;96592.78;;;26.96;29.80
40838;BME280;29632;49.168;9.848;2023-06-14T09:27:30;96588.81;;;26.99;29.56
40838;BME280;29632;49.168;9.848;2023-06-14T09:29:56;96591.53;;;27.04;29.54
40838;BME280;29632;49.168;9.848;2023-06-14T09:32:22;96589.97;;;27.08;29.65
40838;BME280;29632;49.168;9.848;2023-06-14T09:34:48;96595.91;;;27.15;29.57
40838;BME280;29632;49.168;9.848;2023-06-14T09:37:29;96597.06;;;27.24;29.49
40838;BME280;29632;49.168;9.848;2023-06-14T09:39:55;96595.53;;;27.28;29.31
40838;BME280;29632;49.168;9.848;2023-06-14T09:42:21;96595.00;;;27.31;29.45
40838;BME280;29632;49.168;9.848;2023-06-14T09:44:49;96590.22;;;27.34;29.27
40838;BME280;29632;49.168;9.848;2023-06-14T09:47:15;96588.13;;;27.41;29.47
40838;BME280;29632;49.168;9.848;2023-06-14T09:49:42;96586.56;;;27.50;28.99
40838;BME280;29632;49.168;9.848;2023-06-14T09:52:18;96594.63;;;27.55;29.09
40838;BME280;29632;49.168;9.848;2023-06-14T09:54:45;96590.41;;;27.59;29.02
40838;BME280;29632;49.168;9.848;2023-06-14T09:57:13;96588.31;;;27.66;29.06
40838;BME280;29632;49.168;9.848;2023-06-14T09:59:44;96584.31;;;27.74;29.11
40838;BME280;29632;49.168;9.848;2023-06-14T10:04:46;96588.47;;;27.92;28.80
40838;BME280;29632;49.168;9.848;2023-06-14T10:07:19;96589.59;;;28.01;29.01
40838;BME280;29632;49.168;9.848;2023-06-14T10:09:47;96572.22;;;28.09;28.88
40838;BME280;29632;49.168;9.848;2023-06-14T10:12:18;96586.97;;;28.17;28.88
40838;BME280;29632;49.168;9.848;2023-06-14T10:14:48;96585.94;;;28.23;28.72
40838;BME280;29632;49.168;9.848;2023-06-14T10:17:25;96581.41;;;28.29;28.61
40838;BME280;29632;49.168;9.848;2023-06-14T10:20:35;96580.38;;;28.40;28.94
40838;BME280;29632;49.168;9.848;2023-06-14T10:25:31;96584.47;;;28.58;28.34
40838;BME280;29632;49.168;9.848;2023-06-14T10:28:16;96584.50;;;28.63;28.75
40838;BME280;29632;49.168;9.848;2023-06-14T10:31:02;96592.56;;;28.73;28.30
40838;BME280;29632;49.168;9.848;2023-06-14T10:33:29;96590.94;;;28.77;28.42
40838;BME280;29632;49.168;9.848;2023-06-14T10:36:09;96589.63;;;28.75;28.41
40838;BME280;29632;49.168;9.848;2023-06-14T10:38:36;96583.44;;;28.74;28.24
40838;BME280;29632;49.168;9.848;2023-06-14T10:41:03;96588.25;;;28.72;28.64
40838;BME280;29632;49.168;9.848;2023-06-14T10:43:29;96585.56;;;28.72;28.56
40838;BME280;29632;49.168;9.848;2023-06-14T10:46:17;96574.88;;;28.77;28.21
40838;BME280;29632;49.168;9.848;2023-06-14T10:48:46;96580.50;;;28.86;28.20
40838;BME280;29632;49.168;9.848;2023-06-14T10:51:21;96584.25;;;28.95;27.98
40838;BME280;29632;49.168;9.848;2023-06-14T10:53:48;96587.50;;;29.03;28.18
40838;BME280;29632;49.168;9.848;2023-06-14T10:56:26;96578.13;;;29.05;27.96
40838;BME280;29632;49.168;9.848;2023-06-14T10:58:53;96577.84;;;29.07;28.37
40838;BME280;29632;49.168;9.848;2023-06-14T11:01:37;96583.75;;;29.09;27.83
40838;BME280;29632;49.168;9.848;2023-06-14T11:04:07;96584.00;;;29.12;27.99
40838;BME280;29632;49.168;9.848;2023-06-14T11:09:44;96583.53;;;29.21;28.07
40838;BME280;29632;49.168;9.848;2023-06-14T11:12:16;96575.47;;;29.26;27.74
40838;BME280;29632;49.168;9.848;2023-06-14T11:14:46;96579.22;;;29.35;27.71
40838;BME280;29632;49.168;9.848;2023-06-14T11:17:12;96586.19;;;29.41;27.99
40838;BME280;29632;49.168;9.848;2023-06-14T11:19:38;96586.47;;;29.45;27.83
40838;BME280;29632;49.168;9.848;2023-06-14T11:22:03;96585.09;;;29.47;27.98
40838;BME280;29632;49.168;9.848;2023-06-14T11:24:29;96581.63;;;29.52;27.65
40838;BME280;29632;49.168;9.848;2023-06-14T11:26:55;96582.94;;;29.54;27.92
40838;BME280;29632;49.168;9.848;2023-06-14T11:29:22;96575.72;;;29.55;27.73
40838;BME280;29632;49.168;9.848;2023-06-14T11:31:47;96577.31;;;29.61;27.81
40838;BME280;29632;49.168;9.848;2023-06-14T11:34:13;96570.88;;;29.67;27.59
40838;BME280;29632;49.168;9.848;2023-06-14T11:36:39;96577.28;;;29.71;27.41
40838;BME280;29632;49.168;9.848;2023-06-14T11:39:06;96575.13;;;29.73;27.76
40838;BME280;29632;49.168;9.848;2023-06-14T11:41:43;96577.03;;;29.73;27.57
40838;BME280;29632;49.168;9.848;2023-06-14T11:44:09;96583.19;;;29.73;27.66
40838;BME280;29632;49.168;9.848;2023-06-14T11:46:35;96572.72;;;29.72;27.08
40838;BME280;29632;49.168;9.848;2023-06-14T11:49:02;96571.66;;;29.73;27.22
40838;BME280;29632;49.168;9.848;2023-06-14T11:51:33;96577.28;;;29.71;27.62
40838;BME280;29632;49.168;9.848;2023-06-14T11:53:59;96575.66;;;29.70;27.64
40838;BME280;29632;49.168;9.848;2023-06-14T11:56:25;96576.25;;;29.67;27.38
40838;BME280;29632;49.168;9.848;2023-06-14T11:58:52;96573.03;;;29.60;27.36
40838;BME280;29632;49.168;9.848;2023-06-14T12:01:21;96570.88;;;29.57;27.21
40838;BME280;29632;49.168;9.848;2023-06-14T12:03:50;96561.75;;;29.53;27.36
40838;BME280;29632;49.168;9.848;2023-06-14T12:06:19;96569.84;;;29.43;27.63
40838;BME280;29632;49.168;9.848;2023-06-14T12:08:50;96569.84;;;29.37;27.26
40838;BME280;29632;49.168;9.848;2023-06-14T12:11:16;96574.91;;;29.39;27.46
40838;BME280;29632;49.168;9.848;2023-06-14T12:13:42;96570.91;;;29.47;27.42
40838;BME280;29632;49.168;9.848;2023-06-14T12:16:09;96563.09;;;29.55;26.99
40838;BME280;29632;49.168;9.848;2023-06-14T12:18:36;96557.72;;;29.61;26.91
40838;BME280;29632;49.168;9.848;2023-06-14T12:21:06;96557.72;;;29.61;26.97
40838;BME280;29632;49.168;9.848;2023-06-14T12:23:58;96564.69;;;29.62;26.88
40838;BME280;29632;49.168;9.848;2023-06-14T12:26:24;96564.69;;;29.62;26.90
40838;BME280;29632;49.168;9.848;2023-06-14T12:28:51;96561.75;;;29.63;26.92
40838;BME280;29632;49.168;9.848;2023-06-14T12:31:17;96570.63;;;29.64;26.90
40838;BME280;29632;49.168;9.848;2023-06-14T12:33:44;96569.25;;;29.61;27.21
40838;BME280;29632;49.168;9.848;2023-06-14T12:36:11;96565.78;;;29.55;26.90
40838;BME280;29632;49.168;9.848;2023-06-14T12:38:37;96573.03;;;29.55;27.17
40838;BME280;29632;49.168;9.848;2023-06-14T12:41:03;96568.22;;;29.57;27.16
40838;BME280;29632;49.168;9.848;2023-06-14T12:43:29;96565.00;;;29.60;26.69
40838;BME280;29632;49.168;9.848;2023-06-14T12:45:55;96566.84;;;29.60;26.97
40838;BME280;29632;49.168;9.848;2023-06-14T12:48:21;96563.09;;;29.61;26.84
40838;BME280;29632;49.168;9.848;2023-06-14T12:50:47;96557.19;;;29.64;26.77
40838;BME280;29632;49.168;9.848;2023-06-14T12:53:13;96564.16;;;29.70;27.03
40838;BME280;29632;49.168;9.848;2023-06-14T12:55:39;96562.50;;;29.74;27.00
40838;BME280;29632;49.168;9.848;2023-06-14T12:58:04;96571.41;;;29.80;26.89
40838;BME280;29632;49.168;9.848;2023-06-14T13:00:30;96573.25;;;29.84;26.86
40838;BME280;29632;49.168;9.848;2023-06-14T13:02:56;96576.75;;;29.90;26.63
40838;BME280;29632;49.168;9.848;2023-06-14T13:05:22;96567.84;;;29.94;26.42
40838;BME280;29632;49.168;9.848;2023-06-14T13:07:49;96570.25;;;30.01;26.34
40838;BME280;29632;49.168;9.848;2023-06-14T13:10:14;96568.91;;;30.04;26.72